< < Back
Terminal Aerodrome Forecast


Current Version              Previous Versions:   1  2  3  4  5  6  7  8  9  

Terminal Aerodrome Forecast

104
FTUS42 KMLB 290848 AAA
TAFMCO
TAF AMD
KMCO 290848Z 2909/3006 29003KT P6SM FEW050 SCT250
     FM291600 21006KT P6SM SCT045
     FM291800 17008KT P6SM VCTS BKN045CB
     FM292200 22006KT P6SM SCT050 BKN250=



Latest METAR

419
SAUS70 KWBC 291400
MTRMCO
METAR KMCO 291353Z 00000KT 10SM FEW025 FEW300 31/24 A3007 RMK AO2 SLP180
CB DSNT SW T03060239


USA.gov is the U.S. government's official web portal to all federal, state and local government web resources and services.